| time (UTC) | temp C | wind direction | speed KPH | gust KPH | rain 1hr cm | rain 24hr cm | rain mn cm | humidity % | barometer mb |
| 20260510191002 | 30 | 325 | 4.8 | 6.4 | 0.00 | 0.00 | 0.03 | 28 | 1013.0 |
| 20260510190503 | 29 | 260 | 3.2 | 4.8 | 0.00 | 0.00 | 0.03 | 33 | 1013.3 |
| 20260510190003 | 29 | 178 | 4.8 | 4.8 | 0.00 | 0.00 | 0.03 | 28 | 1013.1 |
| 20260510185503 | 30 | 225 | 3.2 | 4.8 | 0.00 | 0.00 | 0.03 | 31 | 1013.3 |
| 20260510185003 | 29 | 160 | 0.0 | 3.2 | 0.00 | 0.00 | 0.03 | 31 | 1013.1 |
| 20260510184503 | 28 | 234 | 4.8 | 6.4 | 0.00 | 0.00 | 0.03 | 32 | 1013.4 |
| 20260510184003 | 28 | 42 | 4.8 | 8.0 | 0.00 | 0.00 | 0.03 | 31 | 1013.3 |
| 20260510183503 | 28 | 55 | 3.2 | 3.2 | 0.00 | 0.00 | 0.03 | 31 | 1013.4 |
| 20260510183022 | 28 | 68 | 0.0 | 3.2 | 0.00 | 0.00 | 0.03 | 32 | 1013.4 |
| 20260510182503 | 28 | 13 | 1.6 | 9.7 | 0.00 | 0.00 | 0.03 | 30 | 1013.5 |
| 20260510182003 | 29 | 102 | 1.6 | 3.2 | 0.00 | 0.00 | 0.03 | 32 | 1013.5 |
| 20260510181522 | 29 | 27 | 1.6 | 4.8 | 0.00 | 0.00 | 0.03 | 30 | 1013.6 |
| 20260510181022 | 29 | 247 | 0.0 | 3.2 | 0.00 | 0.00 | 0.03 | 29 | 1013.8 |
| 20260510180503 | 28 | 269 | 0.0 | 3.2 | 0.00 | 0.00 | 0.03 | 35 | 1013.6 |
| 20260510180003 | 28 | 338 | 4.8 | 4.8 | 0.00 | 0.00 | 0.03 | 32 | 1013.7 |
| 20260510175503 | 27 | 129 | 3.2 | 4.8 | 0.00 | 0.00 | 0.03 | 34 | 1013.6 |
| 20260510175003 | 27 | 112 | 1.6 | 3.2 | 0.00 | 0.00 | 0.03 | 35 | 1013.8 |
| 20260510174503 | 27 | 55 | 3.2 | 8.0 | 0.00 | 0.00 | 0.03 | 33 | 1014.0 |
| 20260510174002 | 27 | 231 | 3.2 | 4.8 | 0.00 | 0.00 | 0.03 | 37 | 1013.8 |
| 20260510173503 | 27 | 233 | 1.6 | 4.8 | 0.00 | 0.00 | 0.03 | 33 | 1014.0 |
| 20260510173003 | 27 | 113 | 3.2 | 6.4 | 0.00 | 0.00 | 0.03 | 37 | 1014.2 |
| 20260510172502 | 27 | 57 | 1.6 | 3.2 | 0.00 | 0.00 | 0.03 | 36 | 1014.1 |
| 20260510172003 | 27 | 323 | 3.2 | 4.8 | 0.00 | 0.00 | 0.03 | 32 | 1014.2 |
| 20260510171502 | 27 | 218 | 3.2 | 4.8 | 0.00 | 0.00 | 0.03 | 33 | 1014.0 |
| 20260510171002 | 27 | 333 | 4.8 | 6.4 | 0.00 | 0.00 | 0.03 | 35 | 1014.2 |
| 20260510170521 | 26 | 88 | 1.6 | 4.8 | 0.00 | 0.00 | 0.03 | 34 | 1014.2 |
| 20260510170002 | 27 | 35 | 4.8 | 11.3 | 0.00 | 0.00 | 0.03 | 35 | 1014.0 |
| 20260510165502 | 27 | 52 | 3.2 | 4.8 | 0.00 | 0.00 | 0.03 | 38 | 1014.2 |
| 20260510165002 | 27 | 38 | 4.8 | 6.4 | 0.00 | 0.00 | 0.03 | 37 | 1014.2 |
| 20260510164502 | 27 | 36 | 1.6 | 4.8 | 0.00 | 0.00 | 0.03 | 37 | 1014.4 |
| 20260510164021 | 27 | 218 | 0.0 | 4.8 | 0.00 | 0.00 | 0.03 | 38 | 1014.3 |
| 20260510163521 | 26 | 254 | 0.0 | 4.8 | 0.00 | 0.00 | 0.03 | 38 | 1014.2 |
| 20260510163002 | 26 | 11 | 4.8 | 6.4 | 0.00 | 0.00 | 0.03 | 40 | 1014.2 |
| 20260510162502 | 26 | 20 | 3.2 | 6.4 | 0.00 | 0.00 | 0.03 | 35 | 1014.3 |
| 20260510162002 | 26 | 32 | 6.4 | 8.0 | 0.00 | 0.00 | 0.03 | 37 | 1014.3 |
| 20260510161502 | 26 | 24 | 3.2 | 8.0 | 0.00 | 0.00 | 0.03 | 37 | 1014.4 |
| 20260510161002 | 26 | 234 | 4.8 | 6.4 | 0.00 | 0.00 | 0.03 | 39 | 1014.6 |
| 20260510160502 | 26 | 86 | 3.2 | 6.4 | 0.00 | 0.00 | 0.03 | 40 | 1014.7 |
| 20260510160002 | 25 | 319 | 4.8 | 4.8 | 0.00 | 0.00 | 0.03 | 40 | 1014.6 |
| 20260510155502 | 25 | 14 | 4.8 | 4.8 | 0.00 | 0.00 | 0.03 | 37 | 1014.6 |
| 20260510155002 | 25 | 61 | 8.0 | 8.0 | 0.00 | 0.00 | 0.03 | 38 | 1014.8 |
| 20260510154502 | 26 | 20 | 8.0 | 8.0 | 0.00 | 0.00 | 0.03 | 37 | 1014.6 |
| 20260510154021 | 26 | 181 | 1.6 | 3.2 | 0.00 | 0.00 | 0.03 | 46 | 1014.8 |
| 20260510153502 | 25 | 303 | 0.0 | 4.8 | 0.00 | 0.00 | 0.03 | 42 | 1014.8 |
| 20260510153003 | 25 | 248 | 1.6 | 3.2 | 0.00 | 0.00 | 0.03 | 46 | 1014.7 |
| 20260510152502 | 25 | 35 | 4.8 | 8.0 | 0.00 | 0.00 | 0.03 | 42 | 1015.1 |
| 20260510152002 | 25 | 37 | 4.8 | 6.4 | 0.00 | 0.00 | 0.03 | 43 | 1015.0 |
| 20260510151502 | 25 | 59 | 3.2 | 6.4 | 0.00 | 0.00 | 0.03 | 42 | 1015.0 |
| 20260510151002 | 24 | 7 | 0.0 | 4.8 | 0.00 | 0.00 | 0.03 | 46 | 1014.9 |
| 20260510150502 | 24 | 57 | 3.2 | 4.8 | 0.00 | 0.00 | 0.03 | 47 | 1015.0 |
| 20260510150002 | 24 | 59 | 6.4 | 8.0 | 0.00 | 0.00 | 0.03 | 47 | 1014.9 |
| 20260510145502 | 23 | 65 | 0.0 | 6.4 | 0.00 | 0.00 | 0.03 | 50 | 1014.8 |
| 20260510145002 | 23 | 72 | 3.2 | 8.0 | 0.00 | 0.00 | 0.03 | 50 | 1015.0 |
| 20260510144540 | 23 | 53 | 11.3 | 11.3 | 0.00 | 0.00 | 0.03 | 50 | 1014.7 |
| 20260510144002 | 23 | 73 | 4.8 | 8.0 | 0.00 | 0.00 | 0.03 | 52 | 1014.7 |
| 20260510143502 | 23 | 49 | 4.8 | 6.4 | 0.00 | 0.00 | 0.03 | 53 | 1014.7 |
| 20260510143002 | 22 | 44 | 4.8 | 6.4 | 0.00 | 0.00 | 0.03 | 51 | 1015.0 |
| 20260510142502 | 22 | 63 | 8.0 | 11.3 | 0.00 | 0.00 | 0.03 | 53 | 1014.6 |
| 20260510142002 | 22 | 53 | 3.2 | 8.0 | 0.00 | 0.00 | 0.03 | 58 | 1014.9 |
| 20260510141502 | 22 | 61 | 3.2 | 4.8 | 0.00 | 0.00 | 0.03 | 60 | 1014.8 |
| 20260510141002 | 22 | 38 | 6.4 | 8.0 | 0.05 | 0.00 | 0.03 | 57 | 1014.8 |
| 20260510140521 | 22 | 53 | 11.3 | 12.9 | 0.05 | 0.00 | 0.03 | 57 | 1014.8 |
| 20260510140003 | 22 | 51 | 4.8 | 6.4 | 0.00 | 0.00 | 0.03 | 60 | 1014.6 |
| 20260510135503 | 22 | 56 | 3.2 | 6.4 | 0.00 | 0.00 | 0.03 | 63 | 1014.8 |
| 20260510135003 | 21 | 56 | 1.6 | 8.0 | 0.00 | 0.00 | 0.03 | 68 | 1014.9 |
| 20260510134503 | 21 | 76 | 3.2 | 6.4 | 0.00 | 0.00 | 0.03 | 71 | 1014.9 |
| 20260510134041 | 21 | 46 | 4.8 | 6.4 | 0.00 | 0.00 | 0.03 | 73 | 1014.6 |
| 20260510133503 | 20 | 69 | 6.4 | 8.0 | 0.00 | 0.00 | 0.03 | 75 | 1015.0 |
| 20260510133003 | 20 | 45 | 3.2 | 4.8 | 0.00 | 0.00 | 0.03 | 78 | 1015.1 |
| 20260510132502 | 20 | 64 | 4.8 | 6.4 | 0.00 | 0.00 | 0.03 | 79 | 1014.9 |
| 20260510132002 | 20 | 64 | 4.8 | 6.4 | 0.00 | 0.00 | 0.03 | 80 | 1015.1 |
| 20260510131502 | 19 | 39 | 1.6 | 3.2 | 0.00 | 0.00 | 0.03 | 83 | 1015.1 |
| 20260510131002 | 18 | 69 | 4.8 | 8.0 | 0.00 | 0.00 | 0.03 | 85 | 1015.0 |
| 20260510130502 | 18 | 63 | 3.2 | 4.8 | 0.00 | 0.00 | 0.03 | 89 | 1015.0 |
| 20260510130004 | 18 | 42 | 1.6 | 1.6 | 0.00 | 0.00 | 0.03 | 91 | 1014.8 |
| 20260510125504 | 17 | 52 | 4.8 | 6.4 | 0.00 | 0.00 | 0.03 | 94 | 1014.6 |
| 20260510125023 | 17 | 53 | 1.6 | 6.4 | 0.00 | 0.00 | 0.03 | 96 | 1014.6 |
| 20260510124504 | 16 | 59 | 0.0 | 1.6 | 0.00 | 0.00 | 0.03 | 97 | 1014.8 |
| 20260510124004 | 16 | 64 | 1.6 | 1.6 | 0.00 | 0.00 | 0.03 | 97 | 1014.6 |
| 20260510123504 | 15 | 85 | 0.0 | 1.6 | 0.00 | 0.00 | 0.03 | 96 | 1014.6 |
| 20260510123004 | 15 | 129 | 0.0 | 1.6 | 0.00 | 0.00 | 0.03 | 96 | 1014.7 |
| 20260510122503 | 15 | 93 | 0.0 | 1.6 | 0.00 | 0.00 | 0.03 | 97 | 1014.8 |
| 20260510122003 | 15 | 142 | 0.0 | 1.6 | 0.00 | 0.00 | 0.03 | 97 | 1015.0 |
| 20260510121503 | 14 | 60 | 0.0 | 1.6 | 0.00 | 0.00 | 0.03 | 98 | 1014.5 |
| 20260510121003 | 13 | 129 | 0.0 | 1.6 | 0.00 | 0.00 | 0.03 | 98 | 1014.7 |
| 20260510120503 | 13 | 64 | 1.6 | 3.2 | 0.00 | 0.00 | 0.03 | 98 | 1014.4 |
| 20260510120042 | 13 | 89 | 0.0 | 1.6 | 0.00 | 0.00 | 0.03 | 98 | 1014.6 |
| 20260510115504 | 13 | 76 | 0.0 | 0.0 | 0.00 | 0.00 | 0.03 | 97 | 1014.4 |
| 20260510115004 | 13 | 50 | 0.0 | 0.0 | 0.00 | 0.00 | 0.03 | 97 | 1014.4 |
| 20260510114523 | 12 | 76 | 0.0 | 1.6 | 0.00 | 0.00 | 0.03 | 97 | 1014.4 |
| 20260510114004 | 12 | 55 | 0.0 | 0.0 | 0.00 | 0.00 | 0.03 | 97 | 1014.5 |
| 20260510113504 | 12 | 50 | 0.0 | 1.6 | 0.00 | 0.00 | 0.03 | 97 | 1014.4 |
| 20260510113004 | 12 | 68 | 1.6 | 3.2 | 0.00 | 0.00 | 0.03 | 98 | 1014.3 |
| 20260510112504 | 12 | 50 | 0.0 | 1.6 | 0.00 | 0.00 | 0.03 | 97 | 1014.1 |
| 20260510112004 | 12 | 50 | 3.2 | 3.2 | 0.00 | 0.00 | 0.03 | 97 | 1013.9 |
| 20260510111523 | 12 | 52 | 1.6 | 3.2 | 0.00 | 0.00 | 0.03 | 98 | 1013.7 |
| 20260510111004 | 12 | 58 | 1.6 | 3.2 | 0.00 | 0.00 | 0.03 | 98 | 1013.7 |
| 20260510110504 | 12 | 109 | 0.0 | 1.6 | 0.00 | 0.00 | 0.03 | 98 | 1013.6 |
| 20260510110004 | 12 | 47 | 1.6 | 3.2 | 0.00 | 0.00 | 0.03 | 98 | 1013.6 |
| 20260510105504 | 12 | 44 | 1.6 | 3.2 | 0.00 | 0.00 | 0.03 | 98 | 1013.7 |
| 20260510105004 | 12 | 33 | 1.6 | 1.6 | 0.00 | 0.00 | 0.03 | 98 | 1013.6 |
| 20260510104523 | 12 | 44 | 0.0 | 1.6 | 0.00 | 0.00 | 0.03 | 98 | 1013.5 |
| 20260510104042 | 12 | 87 | 1.6 | 1.6 | 0.00 | 0.00 | 0.03 | 98 | 1013.3 |
| 20260510103503 | 12 | 64 | 1.6 | 1.6 | 0.00 | 0.00 | 0.03 | 97 | 1013.3 |
| 20260510103004 | 12 | 60 | 1.6 | 3.2 | 0.00 | 0.00 | 0.03 | 97 | 1013.4 |
| 20260510102504 | 12 | 41 | 3.2 | 3.2 | 0.00 | 0.00 | 0.03 | 98 | 1013.2 |
| 20260510102004 | 12 | 66 | 3.2 | 3.2 | 0.00 | 0.00 | 0.03 | 97 | 1013.1 |
| 20260510101523 | 12 | 76 | 0.0 | 1.6 | 0.00 | 0.00 | 0.03 | 97 | 1013.2 |
| 20260510101004 | 12 | 62 | 0.0 | 3.2 | 0.00 | 0.00 | 0.03 | 97 | 1013.1 |
| 20260510100523 | 12 | 67 | 1.6 | 3.2 | 0.05 | 0.00 | 0.03 | 97 | 1013.2 |
| 20260510100004 | 12 | 36 | 1.6 | 3.2 | 0.05 | 0.00 | 0.03 | 97 | 1012.9 |
| 20260510095523 | 12 | 62 | 0.0 | 1.6 | 0.00 | 0.00 | 0.00 | 97 | 1012.8 |
| 20260510095004 | 12 | 147 | 0.0 | 0.0 | 0.00 | 0.00 | 0.00 | 97 | 1012.7 |
| 20260510094504 | 12 | 125 | 0.0 | 1.6 | 0.00 | 0.00 | 0.00 | 97 | 1012.7 |
| 20260510094023 | 12 | 124 | 0.0 | 1.6 | 0.00 | 0.00 | 0.00 | 97 | 1012.6 |
| 20260510093523 | 12 | 66 | 0.0 | 0.0 | 0.00 | 0.00 | 0.00 | 97 | 1012.6 |
| 20260510093004 | 12 | 78 | 1.6 | 1.6 | 0.00 | 0.00 | 0.00 | 97 | 1012.5 |
| 20260510092504 | 12 | 119 | 1.6 | 3.2 | 0.00 | 0.00 | 0.00 | 97 | 1012.4 |
| 20260510092004 | 12 | 73 | 1.6 | 1.6 | 0.00 | 0.00 | 0.00 | 97 | 1012.4 |
| 20260510091504 | 12 | 40 | 1.6 | 3.2 | 0.00 | 0.00 | 0.00 | 97 | 1012.3 |
| 20260510091023 | 12 | 66 | 0.0 | 1.6 | 0.00 | 0.00 | 0.00 | 97 | 1012.2 |
| 20260510090504 | 12 | 24 | 0.0 | 3.2 | 0.00 | 0.00 | 0.00 | 97 | 1012.2 |
| 20260510090003 | 12 | 57 | 3.2 | 3.2 | 0.00 | 0.00 | 0.00 | 97 | 1012.4 |
| 20260510085541 | 12 | 39 | 3.2 | 3.2 | 0.00 | 0.00 | 0.00 | 97 | 1011.9 |
| 20260510085003 | 12 | 50 | 0.0 | 0.0 | 0.00 | 0.00 | 0.00 | 97 | 1012.0 |
| 20260510084601 | 12 | 32 | 0.0 | 1.6 | 0.00 | 0.00 | 0.00 | 97 | 1012.2 |
| 20260510084003 | 12 | 47 | 3.2 | 3.2 | 0.00 | 0.00 | 0.00 | 97 | 1011.8 |
| 20260510083504 | 12 | 38 | 3.2 | 3.2 | 0.00 | 0.00 | 0.00 | 97 | 1011.8 |
| 20260510083003 | 12 | 67 | 1.6 | 3.2 | 0.00 | 0.00 | 0.00 | 97 | 1012.1 |
| 20260510082504 | 13 | 38 | 1.6 | 3.2 | 0.00 | 0.00 | 0.00 | 97 | 1012.0 |
| 20260510082003 | 12 | 63 | 1.6 | 1.6 | 0.00 | 0.00 | 0.00 | 97 | 1012.3 |
| 20260510081504 | 12 | 66 | 0.0 | 0.0 | 0.00 | 0.00 | 0.00 | 97 | 1011.9 |
| 20260510081022 | 12 | 129 | 0.0 | 0.0 | 0.00 | 0.00 | 0.00 | 97 | 1011.8 |
| 20260510080503 | 12 | 76 | 0.0 | 1.6 | 0.00 | 0.00 | 0.00 | 97 | 1011.7 |
| 20260510080004 | 12 | 36 | 3.2 | 3.2 | 0.00 | 0.00 | 0.00 | 97 | 1011.6 |
| 20260510075503 | 13 | 47 | 3.2 | 3.2 | 0.00 | 0.00 | 0.00 | 97 | 1011.9 |
| 20260510075003 | 13 | 75 | 1.6 | 3.2 | 0.00 | 0.00 | 0.00 | 97 | 1011.8 |
| 20260510074503 | 13 | 42 | 1.6 | 3.2 | 0.00 | 0.00 | 0.00 | 97 | 1011.8 |
| 20260510074003 | 13 | 55 | 3.2 | 3.2 | 0.00 | 0.00 | 0.00 | 97 | 1011.7 |
| 20260510073504 | 13 | 49 | 3.2 | 3.2 | 0.00 | 0.00 | 0.00 | 97 | 1012.0 |
| 20260510073004 | 13 | 50 | 0.0 | 1.6 | 0.00 | 0.00 | 0.00 | 97 | 1011.9 |
| 20260510072503 | 13 | 62 | 0.0 | 0.0 | 0.00 | 0.00 | 0.00 | 97 | 1011.9 |
| 20260510072004 | 13 | 29 | 0.0 | 0.0 | 0.00 | 0.00 | 0.00 | 97 | 1011.6 |
| 20260510071503 | 13 | 60 | 0.0 | 1.6 | 0.00 | 0.00 | 0.00 | 97 | 1011.6 |
| 20260510071004 | 13 | 54 | 0.0 | 3.2 | 0.00 | 0.00 | 0.00 | 97 | 1011.5 |
| 20260510070503 | 13 | 38 | 0.0 | 0.0 | 0.00 | 0.00 | 0.00 | 97 | 1011.6 |
| 20260510070004 | 13 | 56 | 0.0 | 0.0 | 0.00 | 0.00 | 0.00 | 97 | 1011.5 |
| 20260510065503 | 13 | 21 | 0.0 | 1.6 | 0.00 | 0.00 | 0.00 | 97 | 1011.3 |
| 20260510065003 | 13 | 65 | 0.0 | 1.6 | 0.00 | 0.00 | 0.00 | 97 | 1011.5 |
| 20260510064503 | 13 | 75 | 1.6 | 1.6 | 0.00 | 0.00 | 0.00 | 97 | 1011.5 |
| 20260510064022 | 13 | 48 | 1.6 | 3.2 | 0.00 | 0.00 | 0.00 | 97 | 1011.6 |
| 20260510063503 | 13 | 54 | 1.6 | 1.6 | 0.00 | 0.00 | 0.00 | 97 | 1011.8 |
| 20260510063003 | 13 | 80 | 1.6 | 1.6 | 0.00 | 0.00 | 0.00 | 97 | 1011.9 |
| 20260510062503 | 13 | 58 | 0.0 | 1.6 | 0.00 | 0.00 | 0.00 | 97 | 1011.7 |
| 20260510062003 | 13 | 14 | 0.0 | 3.2 | 0.00 | 0.00 | 0.00 | 97 | 1011.6 |
| 20260510061504 | 13 | 173 | 0.0 | 0.0 | 0.00 | 0.00 | 0.00 | 97 | 1011.6 |
| 20260510061003 | 13 | 173 | 0.0 | 0.0 | 0.00 | 0.00 | 0.00 | 97 | 1011.8 |
| 20260510060503 | 13 | 150 | 0.0 | 0.0 | 0.00 | 0.00 | 0.00 | 97 | 1011.5 |
| 20260510060003 | 13 | 147 | 0.0 | 0.0 | 0.00 | 0.00 | 0.00 | 97 | 1011.2 |
| 20260510055503 | 13 | 63 | 1.6 | 1.6 | 0.00 | 0.00 | 0.00 | 97 | 1011.5 |
| 20260510055003 | 13 | 34 | 0.0 | 1.6 | 0.00 | 0.00 | 0.00 | 97 | 1012.0 |
| 20260510054503 | 13 | 55 | 0.0 | 1.6 | 0.00 | 0.00 | 0.00 | 97 | 1011.7 |
| 20260510054003 | 13 | 44 | 0.0 | 0.0 | 0.00 | 0.00 | 0.00 | 97 | 1011.9 |
| 20260510053503 | 13 | 113 | 0.0 | 1.6 | 0.05 | 0.00 | 0.00 | 97 | 1011.9 |
| 20260510053003 | 13 | 74 | 1.6 | 1.6 | 0.05 | 0.00 | 0.00 | 97 | 1011.8 |
| 20260510052503 | 13 | 129 | 0.0 | 1.6 | 0.00 | 0.00 | 0.00 | 97 | 1011.8 |
| 20260510052003 | 13 | 63 | 0.0 | 0.0 | 0.00 | 0.00 | 0.00 | 96 | 1011.8 |
| 20260510051503 | 13 | 78 | 0.0 | 3.2 | 0.00 | 0.00 | 0.00 | 96 | 1011.9 |
| 20260510051003 | 13 | 76 | 1.6 | 1.6 | 0.00 | 0.00 | 0.00 | 96 | 1011.8 |
| 20260510050503 | 13 | 65 | 0.0 | 0.0 | 0.00 | 0.00 | 0.00 | 96 | 1011.9 |
| 20260510050022 | 13 | 76 | 0.0 | 1.6 | 0.00 | 0.00 | 0.00 | 96 | 1011.9 |
| 20260510045503 | 13 | 66 | 0.0 | 1.6 | 0.00 | 0.00 | 0.00 | 96 | 1012.1 |
| 20260510045003 | 13 | 66 | 1.6 | 3.2 | 0.00 | 0.00 | 0.00 | 96 | 1012.2 |
| 20260510044522 | 13 | 53 | 1.6 | 3.2 | 0.00 | 0.00 | 0.00 | 96 | 1012.0 |
| 20260510044003 | 13 | 75 | 1.6 | 1.6 | 0.00 | 0.00 | 0.00 | 96 | 1011.9 |
| 20260510043503 | 13 | 80 | 1.6 | 1.6 | 0.00 | 0.00 | 0.00 | 96 | 1012.1 |
| 20260510043003 | 13 | 52 | 0.0 | 1.6 | 0.00 | 0.00 | 0.00 | 96 | 1012.2 |
| 20260510042503 | 13 | 47 | 0.0 | 1.6 | 0.00 | 0.00 | 0.00 | 96 | 1012.2 |
| 20260510042022 | 13 | 37 | 1.6 | 1.6 | 0.00 | 0.00 | 0.00 | 96 | 1012.2 |
| 20260510041504 | 13 | 31 | 1.6 | 1.6 | 0.00 | 0.00 | 0.00 | 96 | 1012.1 |
| 20260510041041 | 14 | 44 | 1.6 | 3.2 | 0.00 | 0.00 | 0.00 | 96 | 1012.0 |
| 20260510040503 | 14 | 43 | 1.6 | 1.6 | 0.00 | 0.00 | 0.00 | 96 | 1012.0 |
| 20260510040004 | 14 | 63 | 1.6 | 1.6 | 0.00 | 0.00 | 0.00 | 96 | 1012.0 |
| 20260510035503 | 14 | 69 | 0.0 | 1.6 | 0.00 | 0.00 | 0.08 | 96 | 1012.0 |
| 20260510035003 | 14 | 77 | 0.0 | 0.0 | 0.00 | 0.00 | 0.08 | 96 | 1012.2 |
| 20260510034503 | 14 | 35 | 1.6 | 1.6 | 0.00 | 0.00 | 0.08 | 96 | 1012.0 |
| 20260510034022 | 14 | 55 | 1.6 | 1.6 | 0.00 | 0.00 | 0.08 | 96 | 1012.0 |
| 20260510033522 | 14 | 48 | 1.6 | 1.6 | 0.00 | 0.00 | 0.08 | 96 | 1011.9 |
| 20260510033003 | 14 | 50 | 0.0 | 1.6 | 0.00 | 0.00 | 0.08 | 96 | 1011.9 |
| 20260510032503 | 14 | 47 | 0.0 | 1.6 | 0.00 | 0.00 | 0.08 | 96 | 1012.1 |
| 20260510032003 | 14 | 53 | 0.0 | 0.0 | 0.00 | 0.00 | 0.08 | 96 | 1012.0 |
| 20260510031503 | 14 | 129 | 0.0 | 0.0 | 0.00 | 0.00 | 0.08 | 96 | 1012.0 |
| 20260510031003 | 14 | 37 | 0.0 | 0.0 | 0.00 | 0.00 | 0.08 | 96 | 1011.8 |
| 20260510030522 | 15 | 66 | 0.0 | 0.0 | 0.00 | 0.00 | 0.08 | 96 | 1011.7 |
| 20260510030004 | 15 | 57 | 1.6 | 1.6 | 0.00 | 0.00 | 0.08 | 96 | 1011.8 |
| 20260510025503 | 15 | 69 | 0.0 | 1.6 | 0.00 | 0.00 | 0.08 | 96 | 1011.7 |
| 20260510025003 | 15 | 64 | 0.0 | 3.2 | 0.00 | 0.00 | 0.08 | 96 | 1011.7 |
| 20260510024503 | 15 | 89 | 0.0 | 1.6 | 0.00 | 0.00 | 0.08 | 96 | 1011.8 |
| 20260510024003 | 15 | 50 | 0.0 | 0.0 | 0.00 | 0.00 | 0.08 | 96 | 1011.9 |
| 20260510023522 | 15 | 76 | 0.0 | 1.6 | 0.00 | 0.00 | 0.08 | 95 | 1011.7 |
| 20260510023003 | 15 | 50 | 0.0 | 0.0 | 0.00 | 0.00 | 0.08 | 95 | 1011.7 |
| 20260510022504 | 15 | 50 | 0.0 | 0.0 | 0.00 | 0.00 | 0.08 | 95 | 1011.7 |
| 20260510022003 | 15 | 41 | 0.0 | 1.6 | 0.00 | 0.00 | 0.08 | 95 | 1011.5 |
| 20260510021503 | 15 | 39 | 3.2 | 3.2 | 0.00 | 0.00 | 0.08 | 95 | 1011.4 |
| 20260510021119 | 15 | 35 | 3.2 | 3.2 | 0.00 | 0.00 | 0.08 | 95 | 1011.7 |
| 20260510020522 | 15 | 65 | 1.6 | 3.2 | 0.00 | 0.00 | 0.08 | 95 | 1011.5 |
| 20260510020003 | 16 | 93 | 1.6 | 1.6 | 0.00 | 0.00 | 0.08 | 95 | 1011.5 |
| 20260510015522 | 16 | 129 | 0.0 | 0.0 | 0.00 | 0.00 | 0.08 | 95 | 1011.5 |
| 20260510015003 | 16 | 129 | 0.0 | 0.0 | 0.00 | 0.00 | 0.08 | 95 | 1011.1 |
| 20260510014522 | 16 | 129 | 0.0 | 0.0 | 0.00 | 0.00 | 0.08 | 95 | 1011.4 |
| 20260510014003 | 16 | 38 | 0.0 | 0.0 | 0.00 | 0.00 | 0.08 | 94 | 1011.5 |
| 20260510013522 | 16 | 50 | 0.0 | 1.6 | 0.00 | 0.00 | 0.08 | 94 | 1011.1 |
| 20260510013041 | 16 | 41 | 1.6 | 1.6 | 0.05 | 0.00 | 0.08 | 94 | 1011.0 |
| 20260510012503 | 16 | 29 | 0.0 | 1.6 | 0.05 | 0.00 | 0.08 | 94 | 1011.1 |
| 20260510012003 | 16 | 76 | 1.6 | 1.6 | 0.00 | 0.00 | 0.08 | 94 | 1010.8 |
| 20260510011503 | 16 | 174 | 0.0 | 0.0 | 0.00 | 0.00 | 0.08 | 93 | 1010.5 |
| 20260510011003 | 16 | 147 | 0.0 | 1.6 | 0.00 | 0.00 | 0.08 | 93 | 1010.5 |
| 20260510010503 | 16 | 92 | 0.0 | 0.0 | 0.00 | 0.00 | 0.08 | 93 | 1010.3 |
| 20260510010003 | 16 | 304 | 0.0 | 0.0 | 0.00 | 0.00 | 0.08 | 92 | 1010.5 |
| 20260510005503 | 17 | 103 | 0.0 | 0.0 | 0.00 | 0.00 | 0.08 | 91 | 1010.3 |
| 20260510005022 | 17 | 129 | 0.0 | 1.6 | 0.00 | 0.00 | 0.08 | 91 | 1010.2 |
| 20260510004503 | 17 | 44 | 0.0 | 0.0 | 0.00 | 0.00 | 0.08 | 90 | 1010.5 |
| 20260510004003 | 17 | 142 | 0.0 | 0.0 | 0.00 | 0.00 | 0.08 | 90 | 1010.3 |
| 20260510003522 | 17 | 130 | 0.0 | 1.6 | 0.00 | 0.00 | 0.08 | 89 | 1010.2 |
| 20260510003004 | 17 | 129 | 0.0 | 0.0 | 0.00 | 0.00 | 0.08 | 89 | 1010.2 |
| 20260510002503 | 18 | 178 | 0.0 | 0.0 | 0.00 | 0.00 | 0.08 | 89 | 1010.1 |
| 20260510002022 | 18 | 44 | 0.0 | 0.0 | 0.00 | 0.00 | 0.08 | 88 | 1010.0 |
| 20260510001522 | 18 | 44 | 0.0 | 0.0 | 0.00 | 0.00 | 0.08 | 87 | 1009.8 |
| 20260510001003 | 18 | 44 | 0.0 | 1.6 | 0.00 | 0.00 | 0.08 | 85 | 1010.0 |
| 20260510000503 | 18 | 37 | 0.0 | 1.6 | 0.00 | 0.00 | 0.08 | 85 | 1010.0 |
| 20260510000022 | 19 | 66 | 0.0 | 1.6 | 0.00 | 0.00 | 0.08 | 84 | 1010.1 |
| 20260509235503 | 19 | 142 | 0.0 | 0.0 | 0.00 | 0.00 | 0.08 | 84 | 1010.2 |
| 20260509235041 | 19 | 142 | 0.0 | 0.0 | 0.00 | 0.00 | 0.08 | 83 | 1009.9 |
| 20260509234503 | 20 | 147 | 0.0 | 0.0 | 0.00 | 0.00 | 0.08 | 81 | 1009.9 |
| 20260509234003 | 20 | 89 | 0.0 | 1.6 | 0.00 | 0.00 | 0.08 | 78 | 1009.8 |
| 20260509233503 | 20 | 55 | 0.0 | 0.0 | 0.00 | 0.00 | 0.08 | 80 | 1009.8 |
| 20260509233003 | 20 | 102 | 1.6 | 1.6 | 0.00 | 0.00 | 0.08 | 77 | 1009.7 |
| 20260509232503 | 21 | 283 | 0.0 | 1.6 | 0.00 | 0.00 | 0.08 | 78 | 1009.6 |
| 20260509232003 | 21 | 233 | 0.0 | 1.6 | 0.00 | 0.00 | 0.08 | 76 | 1009.4 |
| 20260509231503 | 21 | 326 | 0.0 | 0.0 | 0.00 | 0.00 | 0.08 | 73 | 1009.4 |
| 20260509231041 | 21 | 243 | 0.0 | 1.6 | 0.00 | 0.00 | 0.08 | 72 | 1009.2 |
| 20260509230503 | 22 | 120 | 1.6 | 3.2 | 0.00 | 0.00 | 0.08 | 72 | 1009.5 |
| 20260509230022 | 22 | 267 | 1.6 | 1.6 | 0.00 | 0.00 | 0.08 | 74 | 1009.5 |
| 20260509225522 | 22 | 261 | 0.0 | 3.2 | 0.00 | 0.00 | 0.08 | 72 | 1008.9 |
| 20260509225003 | 22 | 197 | 3.2 | 8.0 | 0.00 | 0.00 | 0.08 | 71 | 1009.3 |
| 20260509224503 | 22 | 180 | 0.0 | 3.2 | 0.00 | 0.00 | 0.08 | 71 | 1009.1 |
| 20260509224022 | 22 | 269 | 0.0 | 1.6 | 0.00 | 0.00 | 0.08 | 72 | 1009.2 |
| 20260509223503 | 22 | 321 | 0.0 | 3.2 | 0.00 | 0.00 | 0.08 | 70 | 1009.0 |
| 20260509223003 | 22 | 240 | 0.0 | 3.2 | 0.00 | 0.00 | 0.08 | 70 | 1008.9 |
| 20260509222504 | 22 | 117 | 3.2 | 4.8 | 0.00 | 0.00 | 0.08 | 68 | 1009.0 |
| 20260509222004 | 23 | 347 | 1.6 | 4.8 | 0.05 | 0.00 | 0.08 | 67 | 1008.9 |
| 20260509221504 | 23 | 188 | 0.0 | 8.0 | 0.00 | 0.00 | 0.05 | 67 | 1008.9 |
| 20260509221004 | 23 | 89 | 0.0 | 3.2 | 0.00 | 0.00 | 0.05 | 68 | 1009.0 |
| 20260509220504 | 23 | 317 | 1.6 | 3.2 | 0.00 | 0.00 | 0.05 | 68 | 1009.2 |
| 20260509220004 | 23 | 125 | 3.2 | 3.2 | 0.00 | 0.00 | 0.05 | 68 | 1009.4 |
| 20260509215523 | 22 | 181 | 1.6 | 3.2 | 0.00 | 0.00 | 0.05 | 70 | 1009.1 |
| 20260509215004 | 22 | 355 | 1.6 | 3.2 | 0.00 | 0.00 | 0.05 | 70 | 1009.2 |
| 20260509214523 | 22 | 129 | 1.6 | 4.8 | 0.00 | 0.00 | 0.05 | 68 | 1009.1 |
| 20260509214004 | 23 | 341 | 0.0 | 3.2 | 0.00 | 0.00 | 0.05 | 69 | 1009.1 |
| 20260509213504 | 23 | 164 | 0.0 | 3.2 | 0.00 | 0.00 | 0.05 | 68 | 1009.1 |
| 20260509213004 | 22 | 135 | 0.0 | 3.2 | 0.00 | 0.00 | 0.05 | 70 | 1009.3 |
| 20260509212503 | 22 | 329 | 0.0 | 3.2 | 0.00 | 0.00 | 0.05 | 68 | 1009.1 |
| 20260509212003 | 23 | 180 | 0.0 | 3.2 | 0.00 | 0.00 | 0.05 | 69 | 1009.0 |
| 20260509211503 | 22 | 159 | 0.0 | 4.8 | 0.00 | 0.00 | 0.05 | 68 | 1009.2 |
| 20260509211003 | 22 | 153 | 3.2 | 3.2 | 0.00 | 0.00 | 0.05 | 69 | 1009.2 |
| 20260509210503 | 22 | 341 | 0.0 | 1.6 | 0.00 | 0.00 | 0.05 | 69 | 1009.1 |
| 20260509210003 | 22 | 182 | 0.0 | 3.2 | 0.00 | 0.00 | 0.05 | 70 | 1009.1 |
| 20260509205503 | 23 | 211 | 1.6 | 6.4 | 0.00 | 0.00 | 0.05 | 68 | 1009.0 |
| 20260509205003 | 23 | 238 | 3.2 | 4.8 | 0.00 | 0.00 | 0.05 | 64 | 1009.0 |
| 20260509204503 | 24 | 158 | 1.6 | 3.2 | 0.00 | 0.00 | 0.05 | 64 | 1008.8 |
| 20260509204003 | 24 | 136 | 0.0 | 4.8 | 0.00 | 0.00 | 0.05 | 64 | 1009.0 |
| 20260509203522 | 23 | 210 | 1.6 | 4.8 | 0.00 | 0.00 | 0.05 | 66 | 1008.9 |
| 20260509203003 | 23 | 319 | 1.6 | 6.4 | 0.00 | 0.00 | 0.05 | 66 | 1009.2 |
| 20260509202503 | 23 | 155 | 3.2 | 3.2 | 0.00 | 0.00 | 0.05 | 66 | 1008.8 |
| 20260509202003 | 23 | 29 | 0.0 | 4.8 | 0.00 | 0.00 | 0.05 | 66 | 1009.0 |
| 20260509201503 | 23 | 157 | 3.2 | 3.2 | 0.00 | 0.00 | 0.05 | 67 | 1009.0 |
| 20260509201003 | 23 | 182 | 1.6 | 3.2 | 0.00 | 0.00 | 0.05 | 68 | 1009.0 |
| 20260509200503 | 22 | 266 | 0.0 | 6.4 | 0.00 | 0.00 | 0.05 | 70 | 1009.3 |
| 20260509200004 | 22 | 249 | 3.2 | 6.4 | 0.05 | 0.00 | 0.05 | 68 | 1009.1 |
| 20260509195503 | 22 | 127 | 0.0 | 4.8 | 0.05 | 0.00 | 0.05 | 68 | 1009.2 |
| 20260509195003 | 22 | 315 | 0.0 | 3.2 | 0.00 | 0.00 | 0.05 | 72 | 1009.3 |
| 20260509194503 | 22 | 129 | 0.0 | 0.0 | 0.00 | 0.00 | 0.05 | 73 | 1009.5 |
| 20260509194022 | 22 | 354 | 0.0 | 3.2 | 0.00 | 0.00 | 0.05 | 72 | 1009.7 |
| 20260509193522 | 22 | 98 | 3.2 | 3.2 | 0.00 | 0.00 | 0.05 | 72 | 1009.6 |
| 20260509193003 | 22 | 132 | 1.6 | 3.2 | 0.00 | 0.00 | 0.05 | 72 | 1009.6 |
| 20260509192504 | 22 | 103 | 0.0 | 1.6 | 0.00 | 0.00 | 0.05 | 73 | 1009.7 |
| 20260509192004 | 21 | 12 | 1.6 | 3.2 | 0.00 | 0.00 | 0.05 | 72 | 1009.8 |
| 20260509191504 | 21 | 168 | 1.6 | 3.2 | 0.00 | 0.00 | 0.05 | 74 | 1009.8 |